createdAt,value
2022-10-28T00:01:30.590Z,5.30
2022-10-28T00:04:02.316Z,5.63
2022-10-28T00:06:34.915Z,5.10
2022-10-28T00:09:06.918Z,4.63
2022-10-28T00:14:08.580Z,4.75
2022-10-28T00:16:38.639Z,5.10
2022-10-28T00:19:12.173Z,5.30
2022-10-28T00:21:43.136Z,5.88
2022-10-28T00:24:13.343Z,5.57
2022-10-28T00:26:44.097Z,5.78
2022-10-28T00:29:15.945Z,5.70
2022-10-28T00:31:44.668Z,5.82
2022-10-28T00:34:17.425Z,5.25
2022-10-28T00:36:47.383Z,5.97
2022-10-28T00:39:18.153Z,5.05
2022-10-28T00:41:49.989Z,5.82
2022-10-28T00:44:58.984Z,5.18
2022-10-28T00:47:52.300Z,5.28
2022-10-28T00:50:44.879Z,4.75
2022-10-28T00:53:19.747Z,5.47
2022-10-28T00:58:18.672Z,5.53
2022-10-28T01:00:47.503Z,6.30
2022-10-28T01:03:17.335Z,5.97
2022-10-28T01:05:50.816Z,5.28
2022-10-28T01:08:19.857Z,5.05
2022-10-28T01:11:41.261Z,5.28
2022-10-28T01:14:28.991Z,5.45
2022-10-28T01:17:22.812Z,5.70
2022-10-28T01:21:01.881Z,5.50
2022-10-28T01:23:37.442Z,5.38
2022-10-28T01:26:30.563Z,5.45
2022-10-28T01:29:50.447Z,5.47
2022-10-28T01:32:32.024Z,7.93
2022-10-28T01:35:13.320Z,12.75
2022-10-28T01:37:50.464Z,13.52
2022-10-28T01:40:30.582Z,13.40
2022-10-28T01:43:09.930Z,13.80
2022-10-28T01:45:47.541Z,14.65
2022-10-28T01:48:22.374Z,11.63
2022-10-28T01:53:29.994Z,8.63
2022-10-28T01:56:04.795Z,9.60
2022-10-28T01:58:34.956Z,9.80
2022-10-28T02:01:07.417Z,9.57
2022-10-28T02:03:37.446Z,10.02
2022-10-28T02:06:08.197Z,8.18
2022-10-28T02:08:55.159Z,8.93
2022-10-28T02:12:10.461Z,7.60
2022-10-28T02:17:56.433Z,6.95
2022-10-28T02:20:39.401Z,7.20
2022-10-28T02:23:22.882Z,6.70
2022-10-28T02:25:57.801Z,6.57
2022-10-28T02:28:38.552Z,6.40
2022-10-28T02:31:12.206Z,7.13
2022-10-28T02:33:42.711Z,6.40
2022-10-28T02:36:16.171Z,6.43
2022-10-28T02:38:48.859Z,7.20
2022-10-28T02:41:23.440Z,6.93
2022-10-28T02:43:56.882Z,6.78
2022-10-28T02:46:28.923Z,6.50
2022-10-28T02:49:02.361Z,7.03
2022-10-28T02:51:38.028Z,6.65
2022-10-28T02:54:10.284Z,7.13
2022-10-28T02:56:43.010Z,7.18
2022-10-28T02:59:12.996Z,6.30
2022-10-28T03:01:41.666Z,7.93
2022-10-28T03:04:10.388Z,7.68
2022-10-28T03:06:39.936Z,7.15
2022-10-28T03:09:08.198Z,6.93
2022-10-28T03:11:36.679Z,6.45
2022-10-28T03:14:05.137Z,6.72
2022-10-28T03:16:33.452Z,5.95
2022-10-28T03:19:01.807Z,6.57
2022-10-28T03:21:30.301Z,5.85
2022-10-28T03:23:59.830Z,5.40
2022-10-28T03:26:28.025Z,5.65
2022-10-28T03:28:56.210Z,6.50
2022-10-28T03:31:24.686Z,6.50
2022-10-28T03:33:53.311Z,6.55
2022-10-28T03:36:21.501Z,6.32
2022-10-28T03:38:50.068Z,6.45
2022-10-28T03:41:19.687Z,7.13
2022-10-28T03:43:48.182Z,6.88
2022-10-28T03:46:16.686Z,7.38
2022-10-28T03:48:44.929Z,7.72
2022-10-28T03:51:13.555Z,7.13
2022-10-28T03:53:42.046Z,7.50
2022-10-28T03:56:12.057Z,6.78
2022-10-28T03:58:41.627Z,6.88
2022-10-28T04:01:09.935Z,6.90
2022-10-28T04:03:38.611Z,6.03
2022-10-28T04:06:07.323Z,7.10
2022-10-28T04:08:35.819Z,6.57
2022-10-28T04:11:04.281Z,7.07
2022-10-28T04:13:32.540Z,6.78
2022-10-28T04:16:02.457Z,7.38
2022-10-28T04:18:31.868Z,6.88
2022-10-28T04:21:00.459Z,6.25
2022-10-28T04:23:29.199Z,6.43
2022-10-28T04:25:58.061Z,5.72
2022-10-28T04:28:26.550Z,7.40
2022-10-28T04:30:54.727Z,6.07
2022-10-28T04:33:24.268Z,6.10
2022-10-28T04:35:52.791Z,6.75
2022-10-28T04:38:21.311Z,6.25
2022-10-28T04:40:50.020Z,7.00
2022-10-28T04:43:18.584Z,7.28
2022-10-28T04:45:47.722Z,8.27
2022-10-28T04:48:16.092Z,7.05
2022-10-28T04:50:46.030Z,6.85
2022-10-28T04:53:14.592Z,6.28
2022-10-28T04:55:43.305Z,6.05
2022-10-28T04:58:11.750Z,6.03
2022-10-28T05:00:39.923Z,6.50
2022-10-28T05:03:08.286Z,6.00
2022-10-28T05:05:36.761Z,7.10
2022-10-28T05:08:07.003Z,6.63
2022-10-28T05:10:35.249Z,5.95
2022-10-28T05:13:03.427Z,7.00
2022-10-28T05:15:32.272Z,6.68
2022-10-28T05:18:00.654Z,5.97
2022-10-28T05:20:28.967Z,6.07
2022-10-28T05:22:57.805Z,6.07
2022-10-28T05:25:28.080Z,6.63
2022-10-28T05:28:00.781Z,5.95
2022-10-28T05:30:29.552Z,6.28
2022-10-28T05:33:02.461Z,5.82
2022-10-28T05:35:31.536Z,6.28
2022-10-28T05:37:59.776Z,6.13
2022-10-28T05:40:29.335Z,6.57
2022-10-28T05:42:57.879Z,5.93
2022-10-28T05:45:26.149Z,6.35
2022-10-28T05:47:55.152Z,6.20
2022-10-28T05:50:23.768Z,5.60
2022-10-28T05:52:54.457Z,6.72
2022-10-28T05:55:27.380Z,5.85
2022-10-28T05:57:57.984Z,6.55
2022-10-28T06:00:28.534Z,6.53
2022-10-28T06:03:06.783Z,6.68
2022-10-28T06:05:34.995Z,6.18
2022-10-28T06:08:04.873Z,6.82
2022-10-28T06:10:33.402Z,5.95
2022-10-28T06:13:01.510Z,7.03
2022-10-28T06:15:29.748Z,6.18
2022-10-28T06:17:57.932Z,7.07
2022-10-28T06:20:26.251Z,6.63
2022-10-28T06:22:56.140Z,6.43
2022-10-28T06:25:26.839Z,6.82
2022-10-28T06:27:56.380Z,6.38
2022-10-28T06:30:27.123Z,6.20
2022-10-28T06:32:57.062Z,7.43
2022-10-28T06:35:25.321Z,6.60
2022-10-28T06:37:54.993Z,6.55
2022-10-28T06:40:24.946Z,7.05
2022-10-28T06:42:58.209Z,6.45
2022-10-28T06:45:28.395Z,7.82
2022-10-28T06:47:58.984Z,6.05
2022-10-28T06:50:27.668Z,6.25
2022-10-28T06:52:57.786Z,7.32
2022-10-28T06:55:26.668Z,6.93
2022-10-28T06:57:55.872Z,6.10
2022-10-28T07:00:24.871Z,5.88
2022-10-28T07:02:55.692Z,6.63
2022-10-28T07:05:26.435Z,6.55
2022-10-28T07:07:55.380Z,6.35
2022-10-28T07:10:24.436Z,6.20
2022-10-28T07:12:54.559Z,7.00
2022-10-28T07:15:24.778Z,6.72
2022-10-28T07:17:59.608Z,7.55
2022-10-28T07:22:58.170Z,6.90
2022-10-28T07:25:26.606Z,6.90
2022-10-28T07:27:55.880Z,6.68
2022-10-28T07:30:24.463Z,6.63
2022-10-28T07:32:53.772Z,6.78
2022-10-28T07:35:23.726Z,6.60
2022-10-28T07:37:52.221Z,7.43
2022-10-28T07:40:21.892Z,6.43
2022-10-28T07:42:50.157Z,6.93
2022-10-28T07:45:18.998Z,6.50
2022-10-28T07:47:47.303Z,6.05
2022-10-28T07:50:15.530Z,6.25
2022-10-28T07:52:45.092Z,6.00
2022-10-28T07:55:14.085Z,6.25
2022-10-28T07:57:42.663Z,6.65
2022-10-28T08:00:11.791Z,6.43
2022-10-28T08:02:40.712Z,6.22
2022-10-28T08:05:09.638Z,6.60
2022-10-28T08:07:38.920Z,6.50
2022-10-28T08:10:09.946Z,5.93
2022-10-28T08:12:38.180Z,6.03
2022-10-28T08:15:09.515Z,5.35
2022-10-28T08:17:37.833Z,5.28
2022-10-28T08:20:07.426Z,6.15
2022-10-28T08:22:36.014Z,5.45
2022-10-28T08:25:04.334Z,5.00
2022-10-28T08:27:33.887Z,5.68
2022-10-28T08:30:02.093Z,5.60
2022-10-28T08:32:30.643Z,5.13
2022-10-28T08:34:58.855Z,6.07
2022-10-28T08:37:27.214Z,5.28
2022-10-28T08:39:55.773Z,5.35
2022-10-28T08:42:38.214Z,4.88
2022-10-28T08:45:21.188Z,4.35
2022-10-28T08:48:05.442Z,4.75
2022-10-28T08:50:40.310Z,5.17
2022-10-28T08:53:17.928Z,5.20
2022-10-28T08:55:49.615Z,4.72
2022-10-28T08:58:25.650Z,4.65
2022-10-28T09:00:56.257Z,4.50
2022-10-28T09:03:27.132Z,4.97
2022-10-28T09:06:02.373Z,4.90
2022-10-28T09:08:36.763Z,4.97
2022-10-28T09:11:47.986Z,4.63
2022-10-28T09:14:42.975Z,4.88
2022-10-28T09:17:20.142Z,4.30
2022-10-28T09:19:51.699Z,4.78
2022-10-28T09:22:25.780Z,4.68
2022-10-28T09:24:57.498Z,4.50
2022-10-28T09:27:49.730Z,4.20
2022-10-28T09:30:36.037Z,4.07
2022-10-28T09:33:38.123Z,5.07
2022-10-28T09:36:11.985Z,5.07
2022-10-28T09:38:41.031Z,5.93
2022-10-28T09:41:16.270Z,4.45
2022-10-28T09:43:51.716Z,4.25
2022-10-28T09:46:23.151Z,4.22
2022-10-28T09:48:57.179Z,3.90
2022-10-28T09:51:36.814Z,4.13
2022-10-28T09:54:05.385Z,3.38
2022-10-28T09:56:33.569Z,3.83
2022-10-28T09:59:03.995Z,3.70
2022-10-28T10:01:36.947Z,3.95
2022-10-28T10:04:19.228Z,4.28
2022-10-28T10:06:51.784Z,4.07
2022-10-28T10:09:25.806Z,3.97
2022-10-28T10:11:57.397Z,3.95
2022-10-28T10:14:31.317Z,3.65
2022-10-28T10:17:06.312Z,3.30
2022-10-28T10:20:00.804Z,3.67
2022-10-28T10:22:36.171Z,4.25
2022-10-28T10:25:05.827Z,3.33
2022-10-28T10:27:34.463Z,3.63
2022-10-28T10:30:02.938Z,3.55
2022-10-28T10:32:34.035Z,3.38
2022-10-28T10:35:07.022Z,3.13
2022-10-28T10:37:37.162Z,3.47
2022-10-28T10:40:22.047Z,3.45
2022-10-28T10:45:39.195Z,3.38
2022-10-28T10:48:18.319Z,3.00
2022-10-28T10:50:49.636Z,3.22
2022-10-28T10:53:25.220Z,3.25
2022-10-28T10:55:58.430Z,3.35
2022-10-28T10:58:31.892Z,2.88
2022-10-28T11:01:03.638Z,3.22
2022-10-28T11:03:38.291Z,3.42
2022-10-28T11:09:00.591Z,3.28
2022-10-28T11:11:38.316Z,3.47
2022-10-28T11:14:19.157Z,3.30
2022-10-28T11:16:52.016Z,3.53
2022-10-28T11:19:24.837Z,3.55
2022-10-28T11:22:20.699Z,3.38
2022-10-28T11:25:20.100Z,2.10
2022-10-28T11:28:04.459Z,2.60
2022-10-28T11:30:48.581Z,2.85
2022-10-28T11:33:35.937Z,3.45
2022-10-28T11:36:16.165Z,2.97
2022-10-28T11:39:06.920Z,2.70
2022-10-28T11:41:52.578Z,2.33
2022-10-28T11:44:35.718Z,3.65
2022-10-28T11:47:22.256Z,3.17
2022-10-28T11:50:30.718Z,2.80
2022-10-28T11:53:42.146Z,2.90
2022-10-28T11:56:25.446Z,3.28
2022-10-28T11:59:09.670Z,3.30
2022-10-28T12:01:51.584Z,2.50
2022-10-28T12:04:53.808Z,2.60
2022-10-28T12:07:55.241Z,2.85
2022-10-28T12:10:46.785Z,2.67
2022-10-28T12:13:27.322Z,2.97
2022-10-28T12:16:02.742Z,2.97
2022-10-28T12:18:39.331Z,3.15
2022-10-28T12:21:17.842Z,2.55
2022-10-28T12:23:47.569Z,2.67
2022-10-28T12:26:21.830Z,2.53
2022-10-28T12:28:54.807Z,2.78
2022-10-28T12:31:27.914Z,2.22
2022-10-28T12:33:59.993Z,2.70
2022-10-28T12:36:35.903Z,2.38
2022-10-28T12:39:12.827Z,2.95
2022-10-28T12:41:53.722Z,2.97
2022-10-28T12:44:24.427Z,2.65
2022-10-28T12:47:06.354Z,2.70
2022-10-28T12:49:47.286Z,2.10
2022-10-28T12:52:31.945Z,1.75
2022-10-28T12:55:08.862Z,2.92
2022-10-28T12:57:40.821Z,2.88
2022-10-28T13:00:21.220Z,2.60
2022-10-28T13:02:56.655Z,2.55
2022-10-28T13:05:30.222Z,2.75
2022-10-28T13:08:43.010Z,2.53
2022-10-28T13:11:55.211Z,2.60
2022-10-28T13:17:52.632Z,3.00
2022-10-28T13:20:38.282Z,2.47
2022-10-28T13:23:21.422Z,2.65
2022-10-28T13:26:00.707Z,2.80
2022-10-28T13:28:34.767Z,2.38
2022-10-28T13:31:08.417Z,2.17
2022-10-28T13:33:39.076Z,2.40
2022-10-28T13:36:20.109Z,2.70
2022-10-28T13:38:59.627Z,2.47
2022-10-28T13:41:43.320Z,2.58
2022-10-28T13:44:29.490Z,3.15
2022-10-28T13:47:31.164Z,3.20
2022-10-28T13:50:35.407Z,3.00
2022-10-28T13:53:55.327Z,2.35
2022-10-28T13:56:47.604Z,2.50
2022-10-28T13:59:30.987Z,2.70
2022-10-28T14:02:34.625Z,2.80
2022-10-28T14:05:08.398Z,3.38
2022-10-28T14:07:41.572Z,2.75
2022-10-28T14:10:24.525Z,3.28
2022-10-28T14:12:56.728Z,2.65
2022-10-28T14:15:30.526Z,2.78
2022-10-28T14:18:15.778Z,3.05
2022-10-28T14:21:01.561Z,2.28
2022-10-28T14:24:09.339Z,3.15
2022-10-28T14:27:41.439Z,3.05
2022-10-28T14:30:22.668Z,3.60
2022-10-28T14:33:27.277Z,4.30
2022-10-28T14:36:16.387Z,3.58
2022-10-28T14:39:32.557Z,2.75
2022-10-28T14:45:12.235Z,3.63
2022-10-28T14:48:13.606Z,3.00
2022-10-28T14:50:46.957Z,3.00
2022-10-28T14:53:25.231Z,3.42
2022-10-28T14:56:01.153Z,3.00
2022-10-28T14:58:36.174Z,3.35
2022-10-28T15:01:27.846Z,3.10
2022-10-28T15:04:02.279Z,3.20
2022-10-28T15:06:37.205Z,3.83
2022-10-28T15:09:19.095Z,3.13
2022-10-28T15:11:50.890Z,2.60
2022-10-28T15:14:36.656Z,3.53
2022-10-28T15:17:17.754Z,2.75
2022-10-28T15:19:48.496Z,2.72
2022-10-28T15:22:21.555Z,2.65
2022-10-28T15:25:00.882Z,2.97
2022-10-28T15:27:31.509Z,3.05
2022-10-28T15:30:00.267Z,3.55
2022-10-28T15:32:32.195Z,3.03
2022-10-28T15:35:21.050Z,3.13
2022-10-28T15:37:49.464Z,2.80
2022-10-28T15:40:27.821Z,3.35
2022-10-28T15:43:01.059Z,3.67
2022-10-28T15:45:31.017Z,3.95
2022-10-28T15:48:01.357Z,3.00
2022-10-28T15:50:32.917Z,3.13
2022-10-28T15:53:34.109Z,3.85
2022-10-28T15:56:26.648Z,2.80
2022-10-28T15:59:11.849Z,3.47
2022-10-28T16:04:43.177Z,3.05
2022-10-28T16:07:12.027Z,3.63
2022-10-28T16:09:47.048Z,2.85
2022-10-28T16:12:20.316Z,2.83
2022-10-28T16:14:54.673Z,2.88
2022-10-28T16:17:26.873Z,2.92
2022-10-28T16:19:58.575Z,3.22
2022-10-28T16:22:30.034Z,2.60
2022-10-28T16:24:58.399Z,3.60
2022-10-28T16:27:31.348Z,3.38
2022-10-28T16:30:00.107Z,3.65
2022-10-28T16:32:31.810Z,3.65
2022-10-28T16:35:02.439Z,4.07
2022-10-28T16:37:33.613Z,3.42
2022-10-28T16:40:02.150Z,3.90
2022-10-28T16:42:31.881Z,3.45
2022-10-28T16:45:00.129Z,3.83
2022-10-28T16:47:29.142Z,3.75
2022-10-28T16:49:57.957Z,3.50
2022-10-28T16:52:30.206Z,4.18
2022-10-28T16:54:59.157Z,5.28
2022-10-28T16:57:28.184Z,6.78
2022-10-28T16:59:57.829Z,4.80
2022-10-28T17:02:29.401Z,4.60
2022-10-28T17:04:58.443Z,4.82
2022-10-28T17:07:27.237Z,4.20
2022-10-28T17:09:56.726Z,3.85
2022-10-28T17:12:27.272Z,4.40
2022-10-28T17:14:56.910Z,4.15
2022-10-28T17:17:25.082Z,4.25
2022-10-28T17:19:53.614Z,4.43
2022-10-28T17:22:21.891Z,4.57
2022-10-28T17:24:50.224Z,8.88
2022-10-28T17:27:19.219Z,9.02
2022-10-28T17:29:47.525Z,5.10
2022-10-28T17:32:17.500Z,4.80
2022-10-28T17:34:46.047Z,3.83
2022-10-28T17:37:14.543Z,4.03
2022-10-28T17:39:43.232Z,4.05
2022-10-28T17:42:11.724Z,4.45
2022-10-28T17:44:40.307Z,4.55
2022-10-28T17:47:08.461Z,4.15
2022-10-28T17:49:38.101Z,5.07
2022-10-28T17:52:06.368Z,3.67
2022-10-28T17:54:34.558Z,4.32
2022-10-28T17:57:02.775Z,4.60
2022-10-28T17:59:31.283Z,4.90
2022-10-28T18:01:59.974Z,3.85
2022-10-28T18:04:28.430Z,4.10
2022-10-28T18:06:59.194Z,4.30
2022-10-28T18:09:31.621Z,4.53
2022-10-28T18:12:02.029Z,4.15
2022-10-28T18:14:30.724Z,5.15
2022-10-28T18:16:59.250Z,4.57
2022-10-28T18:19:27.513Z,5.60
2022-10-28T18:21:57.145Z,5.95
2022-10-28T18:24:26.077Z,6.43
2022-10-28T18:26:57.173Z,6.45
2022-10-28T18:29:25.831Z,5.22
2022-10-28T18:31:54.147Z,6.65
2022-10-28T18:34:23.656Z,6.88
2022-10-28T18:36:52.402Z,6.82
2022-10-28T18:39:22.022Z,6.05
2022-10-28T18:41:51.426Z,6.15
2022-10-28T18:44:24.261Z,5.90
2022-10-28T18:46:52.489Z,4.95
2022-10-28T18:49:20.660Z,6.03
2022-10-28T18:51:48.907Z,6.22
2022-10-28T18:54:17.182Z,5.38
2022-10-28T18:56:48.311Z,5.97
2022-10-28T18:59:17.406Z,6.78
2022-10-28T19:01:46.991Z,5.47
2022-10-28T19:04:15.822Z,4.97
2022-10-28T19:06:44.046Z,6.97
2022-10-28T19:09:12.276Z,5.15
2022-10-28T19:11:40.529Z,5.32
2022-10-28T19:14:11.401Z,4.45
2022-10-28T19:16:39.686Z,3.85
2022-10-28T19:19:07.887Z,4.03
2022-10-28T19:21:36.220Z,3.42
2022-10-28T19:24:05.282Z,4.05
2022-10-28T19:26:34.782Z,3.85
2022-10-28T19:29:05.124Z,4.03
2022-10-28T19:31:38.932Z,3.25
2022-10-28T19:34:07.322Z,3.60
2022-10-28T19:36:35.778Z,3.30
2022-10-28T19:39:04.713Z,3.60
2022-10-28T19:41:33.278Z,4.13
2022-10-28T19:44:03.145Z,4.18
2022-10-28T19:46:34.824Z,3.40
2022-10-28T19:49:05.687Z,4.18
2022-10-28T19:51:36.275Z,3.42
2022-10-28T19:54:08.202Z,3.67
2022-10-28T19:56:37.581Z,3.97
2022-10-28T19:59:07.532Z,4.18
2022-10-28T20:01:39.187Z,4.30
2022-10-28T20:04:09.818Z,4.30
2022-10-28T20:06:40.266Z,4.40
2022-10-28T20:09:09.099Z,4.57
2022-10-28T20:11:39.367Z,4.38
2022-10-28T20:14:11.451Z,4.53
2022-10-28T20:16:43.627Z,4.47
2022-10-28T20:19:12.822Z,4.72
2022-10-28T20:21:41.711Z,4.18
2022-10-28T20:24:10.196Z,5.13
2022-10-28T20:26:39.555Z,4.85
2022-10-28T20:29:09.579Z,4.18
2022-10-28T20:31:38.807Z,4.75
2022-10-28T20:34:09.152Z,4.45
2022-10-28T20:36:39.982Z,4.72
2022-10-28T20:39:12.535Z,5.00
2022-10-28T20:41:42.655Z,4.97
2022-10-28T20:44:11.304Z,4.53
2022-10-28T20:46:40.042Z,4.95
2022-10-28T20:49:10.517Z,5.13
2022-10-28T20:51:38.707Z,4.90
2022-10-28T20:54:07.557Z,5.28
2022-10-28T20:56:38.482Z,5.82
2022-10-28T20:59:06.897Z,4.82
2022-10-28T21:01:38.262Z,4.82
2022-10-28T21:04:11.015Z,4.43
2022-10-28T21:06:39.986Z,3.85
2022-10-28T21:09:08.815Z,4.65
2022-10-28T21:11:37.603Z,4.22
2022-10-28T21:14:05.810Z,4.25
2022-10-28T21:16:35.017Z,3.88
2022-10-28T21:19:03.524Z,4.47
2022-10-28T21:21:33.092Z,3.50
2022-10-28T21:24:01.319Z,5.00
2022-10-28T21:26:29.506Z,3.72
2022-10-28T21:28:59.022Z,3.88
2022-10-28T21:31:27.279Z,4.55
2022-10-28T21:33:55.482Z,4.63
2022-10-28T21:36:24.014Z,4.30
2022-10-28T21:38:56.227Z,4.45
2022-10-28T21:41:25.910Z,3.97
2022-10-28T21:43:55.048Z,4.25
2022-10-28T21:46:24.707Z,4.18
2022-10-28T21:48:54.331Z,4.20
2022-10-28T21:51:22.850Z,5.28
2022-10-28T21:53:51.104Z,4.80
2022-10-28T21:56:21.433Z,4.53
2022-10-28T21:58:51.424Z,4.03
2022-10-28T22:01:22.927Z,4.45
2022-10-28T22:03:52.844Z,4.78
2022-10-28T22:06:21.067Z,5.32
2022-10-28T22:08:49.517Z,5.30
2022-10-28T22:11:21.394Z,4.43
2022-10-28T22:13:55.883Z,4.18
2022-10-28T22:16:24.434Z,4.78
2022-10-28T22:18:52.768Z,4.60
2022-10-28T22:21:23.100Z,4.22
2022-10-28T22:23:53.012Z,4.72
2022-10-28T22:26:25.129Z,4.97
2022-10-28T22:28:53.924Z,4.97
2022-10-28T22:31:24.757Z,5.32
2022-10-28T22:33:53.808Z,4.70
2022-10-28T22:36:25.325Z,4.60
2022-10-28T22:38:53.922Z,4.32
2022-10-28T22:41:25.341Z,4.93
2022-10-28T22:43:55.801Z,4.63
2022-10-28T22:46:26.372Z,5.25
2022-10-28T22:48:55.143Z,4.88
2022-10-28T22:51:23.918Z,4.82
2022-10-28T22:53:52.796Z,4.88
2022-10-28T22:56:25.100Z,5.22
2022-10-28T22:58:56.308Z,5.18
2022-10-28T23:01:26.919Z,5.00
2022-10-28T23:03:56.336Z,6.03
2022-10-28T23:06:27.096Z,6.15
2022-10-28T23:08:56.407Z,5.72
2022-10-28T23:11:25.921Z,4.72
2022-10-28T23:13:55.637Z,5.35
2022-10-28T23:16:24.823Z,5.25
2022-10-28T23:18:53.786Z,4.47
2022-10-28T23:21:24.555Z,6.38
2022-10-28T23:23:54.937Z,5.30
2022-10-28T23:26:25.359Z,4.75
2022-10-28T23:28:55.848Z,4.80
2022-10-28T23:31:24.684Z,4.50
2022-10-28T23:33:54.508Z,5.35
2022-10-28T23:36:23.004Z,4.72
2022-10-28T23:38:52.391Z,5.22
2022-10-28T23:41:21.027Z,4.63
2022-10-28T23:43:50.693Z,4.75
2022-10-28T23:46:20.378Z,5.10
2022-10-28T23:48:48.572Z,5.05
2022-10-28T23:51:16.755Z,4.78
2022-10-28T23:53:45.403Z,4.80
2022-10-28T23:56:13.864Z,4.50
2022-10-28T23:58:42.327Z,5.30
